Chignik, AK

9:22 AM AKDT on July 20, 2017 (GMT -0800)
Chignik

Weather History for PAJC - October, 2013

Change the Weather History Date:

Wednesday, October 2, 2013

  Actual Average Record
Temperature  
Mean Temperature 43 °F -  
Max Temperature 44 °F 47 °F 55 °F (2014)
Min Temperature 42 °F 41 °F 37 °F (1998)
Degree Days  
Heating Degree Days 22    
Moisture  
Dew Point 42 °F    
Average Humidity 90    
Maximum Humidity 100    
Minimum Humidity 81    
Precipitation  
Precipitation 2.09 in - - ()
Sea Level Pressure  
Sea Level Pressure 29.54 in    
Wind  
Wind Speed 13 mph (ENE)    
Max Wind Speed 25 mph    
Max Gust Speed 36 mph    
Visibility 6 miles    
Events      
Averages and records for this station are not official NWS values.
T = Trace of Precipitation, MM = Missing Value Source: NWS Daily Summary

Daily Weather History Graph

Daily Weather History Graph

Search for Another Location

Airport or City:

Trip Planner

Search our weather history database for the weather conditions in past years. The results will help you decide how hot, cold, wet, or windy it might be!

Date:

Astronomy

Oct. 02, 2013 Rise Set
Actual Time 8:39 AM AKDT 8:04 PM AKDT
Civil Twilight 8:02 AM AKDT 8:41 PM AKDT
Nautical Twilight 7:18 AM AKDT 9:25 PM AKDT
Astronomical Twilight 6:33 AM AKDT 10:10 PM AKDT
Moon 6:05 AM AKDT (10/2) 6:59 PM AKDT (10/2)
Length of Visible Light 12h 39m
Length of Day
11h 24m
Waning Crescent, 5% of the Moon is Illuminated
Oct 2
Waning Crescent
Oct 4
New
Oct 11
First Quarter
Oct 18
Full
Oct 26
Last Quarter

Hourly Weather History & Observations

Time (AKDT) Temp. Windchill Dew Point Humidity Pressure Visibility Wind Dir Wind Speed Gust Speed Precip Events Conditions
12:16 AM 44.6 °F 41.4 °F 39.2 °F 81% 29.70 in 10.0 mi East 5.8 mph - N/A   Mostly Cloudy
12:36 AM 44.6 °F 40.7 °F 39.2 °F 81% 29.69 in 10.0 mi East 6.9 mph - N/A   Mostly Cloudy
12:56 AM 44.6 °F 40.7 °F 39.2 °F 81% 29.69 in 10.0 mi East 6.9 mph 16.1 mph N/A   Mostly Cloudy
1:16 AM 44.6 °F 40.7 °F 39.2 °F 81% 29.68 in 10.0 mi ENE 6.9 mph - N/A   Overcast
1:36 AM 44.6 °F 40.7 °F 39.2 °F 81% 29.68 in 10.0 mi East 6.9 mph - N/A   Overcast
1:56 AM 44.6 °F 41.4 °F 39.2 °F 81% 29.67 in 10.0 mi East 5.8 mph - N/A   Overcast
2:16 AM 44.6 °F 40.2 °F 39.2 °F 81% 29.66 in 10.0 mi East 8.1 mph - N/A   Overcast
2:36 AM 44.6 °F 39.7 °F 39.2 °F 81% 29.66 in 10.0 mi East 9.2 mph - N/A   Overcast
2:56 AM 44.6 °F 38.8 °F 39.2 °F 81% 29.65 in 10.0 mi NE 11.5 mph - N/A   Overcast
3:16 AM 44.6 °F 40.2 °F 39.2 °F 81% 29.65 in 9.0 mi East 8.1 mph - N/A   Overcast
3:36 AM 44.6 °F 39.2 °F 39.2 °F 81% 29.65 in 10.0 mi ENE 10.4 mph - N/A   Overcast
3:56 AM 44.6 °F 39.2 °F 41.0 °F 87% 29.65 in 10.0 mi ENE 10.4 mph 20.7 mph N/A   Overcast
4:16 AM 44.6 °F 38.8 °F 41.0 °F 87% 29.64 in 10.0 mi ENE 11.5 mph - N/A   Overcast
4:36 AM 44.6 °F 39.2 °F 41.0 °F 87% 29.63 in 10.0 mi ENE 10.4 mph 20.7 mph N/A   Overcast
4:56 AM 44.6 °F 38.8 °F 39.2 °F 81% 29.63 in 10.0 mi ENE 11.5 mph 20.7 mph N/A   Overcast
5:16 AM 44.6 °F 38.8 °F 39.2 °F 81% 29.62 in 10.0 mi ENE 11.5 mph 19.6 mph N/A   Overcast
5:36 AM 44.6 °F 38.8 °F 39.2 °F 81% 29.61 in 10.0 mi ENE 11.5 mph 17.3 mph N/A   Overcast
5:56 AM 44.6 °F 40.2 °F 39.2 °F 81% 29.61 in 10.0 mi ENE 8.1 mph 17.3 mph N/A   Overcast
6:16 AM 44.6 °F 39.7 °F 39.2 °F 81% 29.61 in 10.0 mi ENE 9.2 mph 17.3 mph N/A   Overcast
6:36 AM 44.6 °F 39.2 °F 41.0 °F 87% 29.60 in 9.0 mi East 10.4 mph 18.4 mph N/A   Overcast
6:56 AM 44.6 °F 38.1 °F 41.0 °F 87% 29.60 in 6.0 mi ENE 13.8 mph 19.6 mph 0.02 in   Overcast
7:16 AM 42.8 °F 36.6 °F 42.8 °F 100% 29.59 in 4.0 mi ENE 11.5 mph - 0.04 in   Overcast
7:36 AM 42.8 °F 37.0 °F 42.8 °F 100% 29.59 in 5.0 mi ENE 10.4 mph 16.1 mph 0.09 in   Overcast
7:56 AM 44.6 °F 38.8 °F 42.8 °F 93% 29.58 in 6.0 mi ENE 11.5 mph 19.6 mph 0.14 in   Overcast
8:16 AM 44.6 °F 39.2 °F 42.8 °F 93% 29.58 in 7.0 mi ENE 10.4 mph 19.6 mph 0.03 in   Overcast
8:36 AM 44.6 °F 38.4 °F 42.8 °F 93% 29.57 in 5.0 mi NE 12.7 mph 19.6 mph 0.08 in   Overcast
8:56 AM 44.6 °F 37.2 °F 42.8 °F 93% 29.57 in 7.0 mi NE 17.3 mph 23.0 mph 0.10 in   Overcast
9:16 AM 44.6 °F 36.9 °F 42.8 °F 93% 29.57 in 7.0 mi NE 18.4 mph 24.2 mph 0.02 in   Overcast
9:36 AM 44.6 °F 37.2 °F 42.8 °F 93% 29.57 in 5.0 mi NE 17.3 mph 24.2 mph 0.04 in   Overcast
9:56 AM 44.6 °F 37.2 °F 42.8 °F 93% 29.57 in 3.0 mi NE 17.3 mph 21.9 mph 0.06 in   Overcast
10:16 AM 44.6 °F 37.2 °F 42.8 °F 93% 29.57 in 2.5 mi ENE 17.3 mph 27.6 mph 0.05 in   Overcast
10:36 AM 44.6 °F 37.2 °F 42.8 °F 93% 29.57 in 2.5 mi ENE 17.3 mph 23.0 mph 0.10 in   Overcast
10:56 AM 44.6 °F 37.4 °F 42.8 °F 93% 29.56 in 3.0 mi ENE 16.1 mph 24.2 mph 0.15 in   Overcast
11:16 AM 44.6 °F 37.4 °F 42.8 °F 93% 29.56 in 4.0 mi ENE 16.1 mph 23.0 mph 0.06 in   Overcast
11:36 AM 44.6 °F 37.2 °F 42.8 °F 93% 29.56 in 7.0 mi ENE 17.3 mph 27.6 mph 0.09 in   Overcast
11:56 AM 44.6 °F 36.6 °F 42.8 °F 93% 29.56 in 4.0 mi ENE 19.6 mph 26.5 mph 0.14 in   Overcast
12:16 PM 42.8 °F 34.3 °F 41.0 °F 93% 29.55 in 3.0 mi NE 19.6 mph 25.3 mph 0.08 in   Overcast
12:36 PM 42.8 °F 34.5 °F 41.0 °F 93% 29.55 in 3.0 mi NE 18.4 mph 29.9 mph 0.15 in   Overcast
12:56 PM 42.8 °F 34.5 °F 42.8 °F 100% 29.55 in 3.0 mi ENE 18.4 mph 27.6 mph 0.24 in   Overcast
1:16 PM 44.6 °F 36.6 °F 42.8 °F 93% 29.54 in 5.0 mi NE 19.6 mph 27.6 mph 0.07 in   Overcast
1:36 PM 44.6 °F 36.9 °F 42.8 °F 93% 29.54 in 3.0 mi NE 18.4 mph 32.2 mph 0.12 in   Overcast
1:56 PM 44.6 °F 36.1 °F 42.8 °F 93% 29.53 in 3.0 mi NE 21.9 mph 28.8 mph 0.20 in   Overcast
2:16 PM 44.6 °F 36.6 °F 42.8 °F 93% 29.52 in 4.0 mi NE 19.6 mph 28.8 mph 0.07 in   Overcast
2:36 PM 44.6 °F 36.4 °F 42.8 °F 93% 29.52 in 5.0 mi NE 20.7 mph 28.8 mph 0.12 in   Overcast
2:56 PM 44.6 °F 36.4 °F 42.8 °F 93% 29.51 in 5.0 mi NE 20.7 mph 27.6 mph 0.16 in   Overcast
3:16 PM 44.6 °F 36.1 °F 42.8 °F 93% 29.50 in 3.0 mi NE 21.9 mph 35.7 mph 0.04 in   Overcast
3:36 PM 44.6 °F 36.6 °F 42.8 °F 93% 29.49 in 3.0 mi NE 19.6 mph 29.9 mph 0.10 in   Overcast
3:56 PM 44.6 °F 36.9 °F 42.8 °F 93% 29.49 in 2.5 mi NE 18.4 mph 28.8 mph 0.16 in   Overcast
4:16 PM 44.6 °F 36.1 °F 42.8 °F 93% 29.48 in 4.0 mi NE 21.9 mph 28.8 mph 0.05 in   Overcast
4:36 PM 44.6 °F 35.9 °F 42.8 °F 93% 29.47 in 5.0 mi ENE 23.0 mph 29.9 mph 0.09 in   Overcast
4:56 PM 44.6 °F 36.9 °F 42.8 °F 93% 29.47 in 3.0 mi NE 18.4 mph 32.2 mph 0.14 in   Overcast
5:16 PM 44.6 °F 36.4 °F 44.6 °F 100% 29.46 in 3.0 mi NE 20.7 mph 31.1 mph 0.05 in   Overcast
5:36 PM 44.6 °F 36.4 °F 42.8 °F 93% 29.46 in 3.0 mi NE 20.7 mph 33.4 mph 0.10 in   Overcast
5:56 PM 44.6 °F 36.6 °F 42.8 °F 93% 29.46 in 3.0 mi NE 19.6 mph 28.8 mph 0.17 in   Overcast
6:16 PM 44.6 °F 36.4 °F 42.8 °F 93% 29.46 in 2.5 mi ENE 20.7 mph 29.9 mph 0.06 in   Overcast
6:36 PM 44.6 °F 36.9 °F 42.8 °F 93% 29.45 in 3.0 mi ENE 18.4 mph 29.9 mph 0.13 in   Overcast
6:56 PM 44.6 °F 37.2 °F 42.8 °F 93% 29.45 in 4.0 mi ENE 17.3 mph 29.9 mph 0.18 in   Overcast
7:16 PM 44.6 °F 36.1 °F 42.8 °F 93% 29.45 in 3.0 mi ENE 21.9 mph 29.9 mph 0.04 in   Overcast
7:36 PM 44.6 °F 36.6 °F 42.8 °F 93% 29.45 in 4.0 mi ENE 19.6 mph 28.8 mph 0.07 in   Overcast
7:56 PM 44.6 °F 37.2 °F 42.8 °F 93% 29.45 in 3.0 mi NE 17.3 mph 27.6 mph 0.12 in   Overcast
8:16 PM 44.6 °F 36.4 °F 42.8 °F 93% 29.45 in 2.5 mi ENE 20.7 mph 28.8 mph 0.02 in   Overcast
8:36 PM 44.6 °F 36.9 °F 42.8 °F 93% 29.44 in 4.0 mi ENE 18.4 mph 26.5 mph 0.03 in   Overcast
8:56 PM 44.6 °F 36.6 °F 42.8 °F 93% 29.44 in 4.0 mi ENE 19.6 mph 28.8 mph 0.03 in   Overcast
9:16 PM 44.6 °F 37.2 °F 42.8 °F 93% 29.44 in 5.0 mi ENE 17.3 mph 28.8 mph 0.01 in   Overcast
9:36 PM 44.6 °F 36.4 °F 42.8 °F 93% 29.43 in 5.0 mi ENE 20.7 mph 35.7 mph 0.01 in   Overcast
9:56 PM 44.6 °F 37.4 °F 42.8 °F 93% 29.43 in 6.0 mi NE 16.1 mph 28.8 mph 0.02 in   Overcast
10:16 PM 44.6 °F 36.1 °F 42.8 °F 93% 29.43 in 5.0 mi ENE 21.9 mph 32.2 mph N/A   Overcast
10:36 PM 44.6 °F 35.5 °F 42.8 °F 93% 29.43 in 5.0 mi ENE 25.3 mph 32.2 mph N/A   Overcast
10:56 PM 44.6 °F 36.1 °F 42.8 °F 93% 29.44 in 5.0 mi ENE 21.9 mph 29.9 mph 0.01 in   Overcast
11:16 PM 44.6 °F 36.6 °F 42.8 °F 93% 29.44 in 4.0 mi ENE 19.6 mph 29.9 mph 0.01 in   Overcast
11:36 PM 44.6 °F 36.9 °F 42.8 °F 93% 29.43 in 3.0 mi ENE 18.4 mph 31.1 mph 0.02 in   Overcast
11:56 PM 44.6 °F 36.1 °F 42.8 °F 93% 29.44 in 3.0 mi ENE 21.9 mph 28.8 mph 0.05 in   Overcast